sensor_id;sensor_type;location;lat;lon;timestamp;pressure;altitude;pressure_sealevel;temperature;humidity
77482;BME280;66582;43.004;-75.010;2023-05-29T00:01:53;100103.52;;;23.53;33.01
77482;BME280;66582;43.004;-75.010;2023-05-29T00:04:19;100106.65;;;23.81;31.74
77482;BME280;66582;43.004;-75.010;2023-05-29T00:06:43;100102.64;;;24.30;30.10
77482;BME280;66582;43.004;-75.010;2023-05-29T00:09:10;100101.34;;;24.89;29.58
77482;BME280;66582;43.004;-75.010;2023-05-29T00:11:35;100100.54;;;25.16;29.65
77482;BME280;66582;43.004;-75.010;2023-05-29T00:14:00;100103.78;;;24.89;29.99
77482;BME280;66582;43.004;-75.010;2023-05-29T00:16:24;100108.21;;;23.61;32.44
77482;BME280;66582;43.004;-75.010;2023-05-29T00:18:50;100114.88;;;22.91;33.41
77482;BME280;66582;43.004;-75.010;2023-05-29T00:21:16;100110.11;;;23.86;32.97
77482;BME280;66582;43.004;-75.010;2023-05-29T00:23:40;100123.87;;;21.17;35.59
77482;BME280;66582;43.004;-75.010;2023-05-29T00:26:05;100127.16;;;20.05;38.32
77482;BME280;66582;43.004;-75.010;2023-05-29T00:28:31;100126.61;;;21.31;36.60
77482;BME280;66582;43.004;-75.010;2023-05-29T00:30:56;100125.87;;;22.38;35.83
77482;BME280;66582;43.004;-75.010;2023-05-29T00:33:22;100127.31;;;21.20;35.37
77482;BME280;66582;43.004;-75.010;2023-05-29T00:35:47;100129.89;;;23.15;33.84
77482;BME280;66582;43.004;-75.010;2023-05-29T00:38:12;100135.06;;;21.96;35.45
77482;BME280;66582;43.004;-75.010;2023-05-29T00:40:37;100138.58;;;22.41;34.52
77482;BME280;66582;43.004;-75.010;2023-05-29T00:43:03;100139.92;;;22.99;33.79
77482;BME280;66582;43.004;-75.010;2023-05-29T00:45:28;100139.18;;;21.89;34.94
77482;BME280;66582;43.004;-75.010;2023-05-29T00:47:53;100142.10;;;22.98;33.24
77482;BME280;66582;43.004;-75.010;2023-05-29T00:50:22;100141.99;;;22.94;32.86
77482;BME280;66582;43.004;-75.010;2023-05-29T00:52:44;100143.94;;;21.95;34.42
77482;BME280;66582;43.004;-75.010;2023-05-29T00:55:09;100144.21;;;22.36;34.54
77482;BME280;66582;43.004;-75.010;2023-05-29T00:57:34;100143.52;;;20.52;36.81
77482;BME280;66582;43.004;-75.010;2023-05-29T01:00:02;100151.67;;;20.02;38.58
77482;BME280;66582;43.004;-75.010;2023-05-29T01:02:25;100147.90;;;19.57;39.85
77482;BME280;66582;43.004;-75.010;2023-05-29T01:04:50;100142.95;;;20.69;37.60
77482;BME280;66582;43.004;-75.010;2023-05-29T01:07:15;100154.47;;;18.38;42.91
77482;BME280;66582;43.004;-75.010;2023-05-29T01:09:40;100161.93;;;17.12;47.06
77482;BME280;66582;43.004;-75.010;2023-05-29T01:12:16;100170.60;;;17.20;48.87
77482;BME280;66582;43.004;-75.010;2023-05-29T01:14:45;100174.05;;;16.84;51.25
77482;BME280;66582;43.004;-75.010;2023-05-29T01:17:01;100175.97;;;16.04;52.20
77482;BME280;66582;43.004;-75.010;2023-05-29T01:19:28;100179.63;;;16.17;52.87
77482;BME280;66582;43.004;-75.010;2023-05-29T01:21:58;100184.60;;;16.74;51.52
77482;BME280;66582;43.004;-75.010;2023-05-29T01:24:18;100182.26;;;17.94;47.00
77482;BME280;66582;43.004;-75.010;2023-05-29T01:26:47;100185.91;;;16.82;50.46
77482;BME280;66582;43.004;-75.010;2023-05-29T01:29:06;100195.46;;;16.54;51.42
77482;BME280;66582;43.004;-75.010;2023-05-29T01:31:28;100206.70;;;15.72;55.33
77482;BME280;66582;43.004;-75.010;2023-05-29T01:33:54;100210.92;;;15.91;54.46
77482;BME280;66582;43.004;-75.010;2023-05-29T01:36:18;100208.98;;;16.59;51.17
77482;BME280;66582;43.004;-75.010;2023-05-29T01:38:42;100200.40;;;18.87;43.50
77482;BME280;66582;43.004;-75.010;2023-05-29T01:41:08;100196.26;;;18.86;41.93
77482;BME280;66582;43.004;-75.010;2023-05-29T01:43:34;100200.92;;;17.63;44.83
77482;BME280;66582;43.004;-75.010;2023-05-29T01:45:59;100204.24;;;17.81;42.97
77482;BME280;66582;43.004;-75.010;2023-05-29T01:48:24;100203.56;;;18.13;41.27
77482;BME280;66582;43.004;-75.010;2023-05-29T01:50:50;100197.92;;;17.93;41.53
77482;BME280;66582;43.004;-75.010;2023-05-29T01:53:15;100205.89;;;17.65;44.68
77482;BME280;66582;43.004;-75.010;2023-05-29T01:55:40;100203.38;;;18.05;43.20
77482;BME280;66582;43.004;-75.010;2023-05-29T01:58:06;100210.40;;;16.70;44.97
77482;BME280;66582;43.004;-75.010;2023-05-29T02:00:31;100218.20;;;16.84;47.25
77482;BME280;66582;43.004;-75.010;2023-05-29T02:02:55;100214.65;;;18.28;43.81
77482;BME280;66582;43.004;-75.010;2023-05-29T02:05:22;100219.83;;;17.54;44.86
77482;BME280;66582;43.004;-75.010;2023-05-29T02:07:46;100231.68;;;15.00;53.45
77482;BME280;66582;43.004;-75.010;2023-05-29T02:10:11;100236.33;;;14.12;60.04
77482;BME280;66582;43.004;-75.010;2023-05-29T02:12:36;100239.69;;;13.61;64.30
77482;BME280;66582;43.004;-75.010;2023-05-29T02:15:01;100240.27;;;13.71;63.28
77482;BME280;66582;43.004;-75.010;2023-05-29T02:17:27;100244.71;;;14.37;59.28
77482;BME280;66582;43.004;-75.010;2023-05-29T02:19:54;100251.58;;;14.20;58.60
77482;BME280;66582;43.004;-75.010;2023-05-29T02:22:18;100247.38;;;15.50;53.97
77482;BME280;66582;43.004;-75.010;2023-05-29T02:24:43;100246.60;;;16.70;48.46
77482;BME280;66582;43.004;-75.010;2023-05-29T02:27:07;100251.04;;;15.09;52.46
77482;BME280;66582;43.004;-75.010;2023-05-29T02:29:33;100250.30;;;14.61;56.20
77482;BME280;66582;43.004;-75.010;2023-05-29T02:31:58;100253.66;;;13.26;61.61
77482;BME280;66582;43.004;-75.010;2023-05-29T02:34:24;100254.19;;;13.38;62.36
77482;BME280;66582;43.004;-75.010;2023-05-29T02:36:49;100250.76;;;13.96;57.49
77482;BME280;66582;43.004;-75.010;2023-05-29T02:39:14;100252.56;;;13.83;59.71
77482;BME280;66582;43.004;-75.010;2023-05-29T02:41:40;100247.35;;;14.12;57.89
77482;BME280;66582;43.004;-75.010;2023-05-29T02:44:05;100245.55;;;13.37;59.12
77482;BME280;66582;43.004;-75.010;2023-05-29T02:46:31;100246.51;;;13.38;60.42
77482;BME280;66582;43.004;-75.010;2023-05-29T02:48:55;100249.75;;;12.93;64.18
77482;BME280;66582;43.004;-75.010;2023-05-29T02:51:19;100251.14;;;12.45;65.31
77482;BME280;66582;43.004;-75.010;2023-05-29T02:53:46;100249.06;;;12.56;64.04
77482;BME280;66582;43.004;-75.010;2023-05-29T02:56:10;100249.05;;;12.32;65.17
77482;BME280;66582;43.004;-75.010;2023-05-29T02:58:35;100248.61;;;12.44;63.91
77482;BME280;66582;43.004;-75.010;2023-05-29T03:01:00;100247.04;;;12.76;64.13
77482;BME280;66582;43.004;-75.010;2023-05-29T03:03:26;100250.40;;;12.50;64.26
77482;BME280;66582;43.004;-75.010;2023-05-29T03:05:52;100247.76;;;12.86;60.75
77482;BME280;66582;43.004;-75.010;2023-05-29T03:08:17;100242.97;;;12.35;62.40
77482;BME280;66582;43.004;-75.010;2023-05-29T03:10:42;100242.81;;;12.63;62.64
77482;BME280;66582;43.004;-75.010;2023-05-29T03:13:07;100240.72;;;12.30;62.42
77482;BME280;66582;43.004;-75.010;2023-05-29T03:15:32;100243.59;;;12.50;63.11
77482;BME280;66582;43.004;-75.010;2023-05-29T03:17:57;100245.59;;;12.39;64.04
77482;BME280;66582;43.004;-75.010;2023-05-29T03:20:22;100244.38;;;12.19;64.29
77482;BME280;66582;43.004;-75.010;2023-05-29T03:22:48;100241.70;;;12.08;62.80
77482;BME280;66582;43.004;-75.010;2023-05-29T03:25:13;100242.82;;;11.69;63.72
77482;BME280;66582;43.004;-75.010;2023-05-29T03:27:38;100243.94;;;12.01;64.40
77482;BME280;66582;43.004;-75.010;2023-05-29T03:30:03;100240.18;;;11.65;65.42
77482;BME280;66582;43.004;-75.010;2023-05-29T03:32:28;100241.00;;;11.40;66.62
77482;BME280;66582;43.004;-75.010;2023-05-29T03:34:53;100239.47;;;11.83;65.83
77482;BME280;66582;43.004;-75.010;2023-05-29T03:37:19;100233.39;;;12.12;63.10
77482;BME280;66582;43.004;-75.010;2023-05-29T03:39:44;100232.90;;;12.52;59.24
77482;BME280;66582;43.004;-75.010;2023-05-29T03:42:09;100238.88;;;12.01;60.71
77482;BME280;66582;43.004;-75.010;2023-05-29T03:44:34;100239.62;;;12.21;59.49
77482;BME280;66582;43.004;-75.010;2023-05-29T03:46:59;100243.17;;;11.71;61.88
77482;BME280;66582;43.004;-75.010;2023-05-29T03:49:25;100241.26;;;12.42;59.91
77482;BME280;66582;43.004;-75.010;2023-05-29T03:51:50;100236.18;;;13.78;54.49
77482;BME280;66582;43.004;-75.010;2023-05-29T03:54:15;100232.52;;;14.98;51.26
77482;BME280;66582;43.004;-75.010;2023-05-29T03:56:40;100231.32;;;15.08;51.45
77482;BME280;66582;43.004;-75.010;2023-05-29T03:59:06;100230.64;;;14.74;53.36
77482;BME280;66582;43.004;-75.010;2023-05-29T04:01:30;100222.16;;;16.07;47.56
77482;BME280;66582;43.004;-75.010;2023-05-29T04:03:56;100227.46;;;12.80;54.41
77482;BME280;66582;43.004;-75.010;2023-05-29T04:06:21;100225.58;;;13.25;53.56
77482;BME280;66582;43.004;-75.010;2023-05-29T04:08:46;100228.06;;;12.82;53.35
77482;BME280;66582;43.004;-75.010;2023-05-29T04:11:12;100232.91;;;13.00;52.89
77482;BME280;66582;43.004;-75.010;2023-05-29T04:13:37;100233.48;;;13.06;51.92
77482;BME280;66582;43.004;-75.010;2023-05-29T04:16:02;100232.17;;;13.75;51.87
77482;BME280;66582;43.004;-75.010;2023-05-29T04:18:27;100230.44;;;13.92;51.58
77482;BME280;66582;43.004;-75.010;2023-05-29T04:20:52;100232.06;;;14.89;47.41
77482;BME280;66582;43.004;-75.010;2023-05-29T04:23:18;100233.99;;;14.67;47.06
77482;BME280;66582;43.004;-75.010;2023-05-29T04:25:43;100230.15;;;15.86;44.72
77482;BME280;66582;43.004;-75.010;2023-05-29T04:28:08;100233.94;;;15.39;47.19
77482;BME280;66582;43.004;-75.010;2023-05-29T04:30:33;100240.97;;;13.84;47.44
77482;BME280;66582;43.004;-75.010;2023-05-29T04:32:59;100241.45;;;14.26;46.07
77482;BME280;66582;43.004;-75.010;2023-05-29T04:35:23;100236.23;;;15.65;44.01
77482;BME280;66582;43.004;-75.010;2023-05-29T04:37:49;100235.02;;;15.89;43.19
77482;BME280;66582;43.004;-75.010;2023-05-29T04:40:14;100236.27;;;15.89;42.81
77482;BME280;66582;43.004;-75.010;2023-05-29T04:42:40;100234.00;;;16.18;41.33
77482;BME280;66582;43.004;-75.010;2023-05-29T04:45:06;100233.74;;;15.71;42.37
77482;BME280;66582;43.004;-75.010;2023-05-29T04:47:31;100227.05;;;16.49;40.92
77482;BME280;66582;43.004;-75.010;2023-05-29T04:49:56;100226.09;;;16.05;41.94
77482;BME280;66582;43.004;-75.010;2023-05-29T04:52:21;100227.07;;;16.53;41.21
77482;BME280;66582;43.004;-75.010;2023-05-29T04:54:46;100228.12;;;16.01;41.58
77482;BME280;66582;43.004;-75.010;2023-05-29T04:57:11;100236.04;;;14.21;44.43
77482;BME280;66582;43.004;-75.010;2023-05-29T04:59:36;100240.30;;;14.45;45.40
77482;BME280;66582;43.004;-75.010;2023-05-29T05:02:02;100242.23;;;14.65;47.19
77482;BME280;66582;43.004;-75.010;2023-05-29T05:04:26;100239.03;;;15.69;45.58
77482;BME280;66582;43.004;-75.010;2023-05-29T05:06:52;100236.55;;;14.32;47.49
77482;BME280;66582;43.004;-75.010;2023-05-29T05:09:17;100227.82;;;15.40;46.80
77482;BME280;66582;43.004;-75.010;2023-05-29T05:11:42;100218.95;;;16.89;40.61
77482;BME280;66582;43.004;-75.010;2023-05-29T05:14:08;100225.22;;;16.24;41.44
77482;BME280;66582;43.004;-75.010;2023-05-29T05:16:33;100221.23;;;15.25;43.11
77482;BME280;66582;43.004;-75.010;2023-05-29T05:18:59;100221.68;;;15.36;43.31
77482;BME280;66582;43.004;-75.010;2023-05-29T05:21:24;100219.09;;;15.75;43.78
77482;BME280;66582;43.004;-75.010;2023-05-29T05:23:49;100214.26;;;16.08;42.44
77482;BME280;66582;43.004;-75.010;2023-05-29T05:26:14;100219.70;;;14.74;47.45
77482;BME280;66582;43.004;-75.010;2023-05-29T05:28:39;100218.25;;;14.63;47.83
77482;BME280;66582;43.004;-75.010;2023-05-29T05:31:05;100222.09;;;14.42;47.74
77482;BME280;66582;43.004;-75.010;2023-05-29T05:33:30;100219.20;;;14.31;46.99
77482;BME280;66582;43.004;-75.010;2023-05-29T05:35:55;100214.93;;;14.36;47.72
77482;BME280;66582;43.004;-75.010;2023-05-29T05:38:21;100214.41;;;14.47;47.79
77482;BME280;66582;43.004;-75.010;2023-05-29T05:40:45;100201.96;;;15.95;44.67
77482;BME280;66582;43.004;-75.010;2023-05-29T05:43:11;100201.45;;;15.60;42.18
77482;BME280;66582;43.004;-75.010;2023-05-29T05:45:36;100206.77;;;14.59;43.28
77482;BME280;66582;43.004;-75.010;2023-05-29T05:48:01;100202.37;;;13.61;45.62
77482;BME280;66582;43.004;-75.010;2023-05-29T05:50:26;100200.32;;;15.00;45.81
77482;BME280;66582;43.004;-75.010;2023-05-29T05:52:51;100197.70;;;16.41;41.94
77482;BME280;66582;43.004;-75.010;2023-05-29T05:55:16;100203.04;;;15.33;42.72
77482;BME280;66582;43.004;-75.010;2023-05-29T05:57:42;100204.74;;;13.64;45.82
77482;BME280;66582;43.004;-75.010;2023-05-29T06:00:08;100206.13;;;13.21;47.44
77482;BME280;66582;43.004;-75.010;2023-05-29T06:02:34;100205.71;;;12.58;50.49
77482;BME280;66582;43.004;-75.010;2023-05-29T06:04:57;100198.68;;;13.44;50.37
77482;BME280;66582;43.004;-75.010;2023-05-29T06:07:23;100190.05;;;15.07;45.56
77482;BME280;66582;43.004;-75.010;2023-05-29T06:09:49;100195.46;;;14.00;40.95
77482;BME280;66582;43.004;-75.010;2023-05-29T06:12:13;100198.41;;;14.19;43.32
77482;BME280;66582;43.004;-75.010;2023-05-29T06:14:38;100196.34;;;14.00;46.05
77482;BME280;66582;43.004;-75.010;2023-05-29T06:17:03;100191.33;;;13.86;46.59
77482;BME280;66582;43.004;-75.010;2023-05-29T06:19:29;100187.56;;;15.42;42.76
77482;BME280;66582;43.004;-75.010;2023-05-29T06:21:55;100191.34;;;14.86;39.95
77482;BME280;66582;43.004;-75.010;2023-05-29T06:24:21;100194.91;;;14.27;45.80
77482;BME280;66582;43.004;-75.010;2023-05-29T06:26:45;100194.79;;;15.04;44.44
77482;BME280;66582;43.004;-75.010;2023-05-29T06:29:10;100202.64;;;14.58;45.04
77482;BME280;66582;43.004;-75.010;2023-05-29T06:31:35;100204.87;;;13.43;47.16
77482;BME280;66582;43.004;-75.010;2023-05-29T06:34:00;100201.73;;;13.53;47.68
77482;BME280;66582;43.004;-75.010;2023-05-29T06:36:25;100196.74;;;15.15;44.95
77482;BME280;66582;43.004;-75.010;2023-05-29T06:38:51;100199.49;;;13.26;46.28
77482;BME280;66582;43.004;-75.010;2023-05-29T06:41:16;100198.38;;;13.31;45.33
77482;BME280;66582;43.004;-75.010;2023-05-29T06:43:41;100193.53;;;13.62;43.89
77482;BME280;66582;43.004;-75.010;2023-05-29T06:46:06;100198.15;;;13.16;46.37
77482;BME280;66582;43.004;-75.010;2023-05-29T06:48:33;100194.86;;;12.51;47.55
77482;BME280;66582;43.004;-75.010;2023-05-29T06:50:57;100194.43;;;12.48;47.82
77482;BME280;66582;43.004;-75.010;2023-05-29T06:53:22;100189.49;;;12.58;47.27
77482;BME280;66582;43.004;-75.010;2023-05-29T06:55:47;100191.51;;;12.31;47.32
77482;BME280;66582;43.004;-75.010;2023-05-29T06:58:12;100190.93;;;13.00;43.52
77482;BME280;66582;43.004;-75.010;2023-05-29T07:00:38;100188.40;;;13.58;44.68
77482;BME280;66582;43.004;-75.010;2023-05-29T07:03:04;100194.47;;;13.25;47.48
77482;BME280;66582;43.004;-75.010;2023-05-29T07:05:29;100208.53;;;14.51;45.42
77482;BME280;66582;43.004;-75.010;2023-05-29T07:07:54;100202.60;;;12.77;47.71
77482;BME280;66582;43.004;-75.010;2023-05-29T07:10:20;100207.55;;;13.83;45.72
77482;BME280;66582;43.004;-75.010;2023-05-29T07:12:45;100200.02;;;12.98;44.91
77482;BME280;66582;43.004;-75.010;2023-05-29T07:15:11;100203.19;;;12.77;44.15
77482;BME280;66582;43.004;-75.010;2023-05-29T07:17:36;100206.12;;;11.64;47.64
77482;BME280;66582;43.004;-75.010;2023-05-29T07:20:01;100196.69;;;13.11;43.68
77482;BME280;66582;43.004;-75.010;2023-05-29T07:22:26;100193.17;;;13.39;43.17
77482;BME280;66582;43.004;-75.010;2023-05-29T07:24:51;100193.18;;;12.17;45.69
77482;BME280;66582;43.004;-75.010;2023-05-29T07:27:16;100190.68;;;12.56;45.16
77482;BME280;66582;43.004;-75.010;2023-05-29T07:29:43;100192.43;;;12.36;45.38
77482;BME280;66582;43.004;-75.010;2023-05-29T07:32:08;100189.90;;;12.81;45.20
77482;BME280;66582;43.004;-75.010;2023-05-29T07:34:32;100191.79;;;12.12;47.87
77482;BME280;66582;43.004;-75.010;2023-05-29T07:37:00;100184.99;;;13.06;47.40
77482;BME280;66582;43.004;-75.010;2023-05-29T07:39:23;100187.65;;;14.04;44.92
77482;BME280;66582;43.004;-75.010;2023-05-29T07:41:50;100196.50;;;14.32;44.08
77482;BME280;66582;43.004;-75.010;2023-05-29T07:44:15;100204.66;;;14.12;43.88
77482;BME280;66582;43.004;-75.010;2023-05-29T07:46:40;100222.82;;;14.87;43.23
77482;BME280;66582;43.004;-75.010;2023-05-29T07:49:06;100240.27;;;11.31;46.78
77482;BME280;66582;43.004;-75.010;2023-05-29T07:51:32;100251.19;;;7.78;63.40
77482;BME280;66582;43.004;-75.010;2023-05-29T07:53:57;100254.94;;;8.07;65.81
77482;BME280;66582;43.004;-75.010;2023-05-29T07:56:22;100252.72;;;8.76;62.02
77482;BME280;66582;43.004;-75.010;2023-05-29T07:58:47;100248.81;;;10.72;56.98
77482;BME280;66582;43.004;-75.010;2023-05-29T08:01:13;100262.70;;;8.43;62.61
77482;BME280;66582;43.004;-75.010;2023-05-29T08:03:37;100263.51;;;8.01;71.68
77482;BME280;66582;43.004;-75.010;2023-05-29T08:06:03;100252.49;;;8.87;65.59
77482;BME280;66582;43.004;-75.010;2023-05-29T08:08:27;100244.11;;;10.94;56.88
77482;BME280;66582;43.004;-75.010;2023-05-29T08:10:53;100241.99;;;10.32;58.32
77482;BME280;66582;43.004;-75.010;2023-05-29T08:13:19;100226.05;;;12.06;53.66
77482;BME280;66582;43.004;-75.010;2023-05-29T08:15:44;100224.22;;;11.83;50.76
77482;BME280;66582;43.004;-75.010;2023-05-29T08:18:09;100234.42;;;8.78;59.27
77482;BME280;66582;43.004;-75.010;2023-05-29T08:20:35;100214.83;;;12.83;50.85
77482;BME280;66582;43.004;-75.010;2023-05-29T08:23:00;100240.24;;;6.66;69.49
77482;BME280;66582;43.004;-75.010;2023-05-29T08:25:25;100237.80;;;7.42;70.84
77482;BME280;66582;43.004;-75.010;2023-05-29T08:27:50;100238.34;;;7.68;72.34
77482;BME280;66582;43.004;-75.010;2023-05-29T08:30:16;100223.93;;;10.41;59.76
77482;BME280;66582;43.004;-75.010;2023-05-29T08:32:40;100233.01;;;11.06;56.05
77482;BME280;66582;43.004;-75.010;2023-05-29T08:35:06;100243.97;;;7.72;67.91
77482;BME280;66582;43.004;-75.010;2023-05-29T08:37:31;100237.40;;;9.67;61.92
77482;BME280;66582;43.004;-75.010;2023-05-29T08:39:56;100237.41;;;9.23;64.26
77482;BME280;66582;43.004;-75.010;2023-05-29T08:42:25;100235.46;;;11.70;55.99
77482;BME280;66582;43.004;-75.010;2023-05-29T08:44:47;100224.78;;;11.83;53.08
77482;BME280;66582;43.004;-75.010;2023-05-29T08:47:13;100232.58;;;10.58;55.02
77482;BME280;66582;43.004;-75.010;2023-05-29T08:49:41;100235.46;;;11.80;53.14
77482;BME280;66582;43.004;-75.010;2023-05-29T08:52:08;100240.11;;;10.12;57.06
77482;BME280;66582;43.004;-75.010;2023-05-29T08:54:31;100241.32;;;10.81;57.04
77482;BME280;66582;43.004;-75.010;2023-05-29T08:56:53;100241.89;;;10.00;57.14
77482;BME280;66582;43.004;-75.010;2023-05-29T08:59:19;100246.11;;;10.96;54.91
77482;BME280;66582;43.004;-75.010;2023-05-29T09:01:44;100245.23;;;12.38;51.35
77482;BME280;66582;43.004;-75.010;2023-05-29T09:04:10;100250.59;;;11.41;52.82
77482;BME280;66582;43.004;-75.010;2023-05-29T09:06:35;100247.21;;;13.18;50.32
77482;BME280;66582;43.004;-75.010;2023-05-29T09:09:00;100249.38;;;12.90;49.62
77482;BME280;66582;43.004;-75.010;2023-05-29T09:11:25;100248.39;;;14.18;46.79
77482;BME280;66582;43.004;-75.010;2023-05-29T09:13:52;100263.61;;;9.34;55.15
77482;BME280;66582;43.004;-75.010;2023-05-29T09:16:16;100265.76;;;11.46;54.48
77482;BME280;66582;43.004;-75.010;2023-05-29T09:18:40;100270.11;;;9.40;55.77
77482;BME280;66582;43.004;-75.010;2023-05-29T09:21:07;100287.44;;;7.00;70.60
77482;BME280;66582;43.004;-75.010;2023-05-29T09:23:32;100285.44;;;9.87;60.28
77482;BME280;66582;43.004;-75.010;2023-05-29T09:25:56;100284.40;;;10.25;56.69
77482;BME280;66582;43.004;-75.010;2023-05-29T09:28:22;100288.05;;;10.68;55.35
77482;BME280;66582;43.004;-75.010;2023-05-29T09:30:47;100278.50;;;11.69;52.69
77482;BME280;66582;43.004;-75.010;2023-05-29T09:33:13;100273.21;;;12.02;51.95
77482;BME280;66582;43.004;-75.010;2023-05-29T09:35:39;100279.92;;;10.79;52.89
77482;BME280;66582;43.004;-75.010;2023-05-29T09:38:02;100294.89;;;7.72;68.70
77482;BME280;66582;43.004;-75.010;2023-05-29T09:40:30;100303.01;;;8.79;67.39
77482;BME280;66582;43.004;-75.010;2023-05-29T09:42:52;100301.93;;;10.23;59.06
77482;BME280;66582;43.004;-75.010;2023-05-29T09:45:18;100299.90;;;10.14;58.87
77482;BME280;66582;43.004;-75.010;2023-05-29T09:47:43;100311.49;;;8.63;61.21
77482;BME280;66582;43.004;-75.010;2023-05-29T09:50:18;100313.11;;;9.86;61.33
77482;BME280;66582;43.004;-75.010;2023-05-29T09:52:33;100320.88;;;8.50;65.49
77482;BME280;66582;43.004;-75.010;2023-05-29T09:54:59;100335.46;;;5.80;82.27
77482;BME280;66582;43.004;-75.010;2023-05-29T09:57:25;100340.15;;;5.69;88.93
77482;BME280;66582;43.004;-75.010;2023-05-29T09:59:49;100340.82;;;8.23;78.62
77482;BME280;66582;43.004;-75.010;2023-05-29T10:02:15;100339.94;;;8.11;74.11
77482;BME280;66582;43.004;-75.010;2023-05-29T10:04:40;100336.16;;;8.71;69.93
77482;BME280;66582;43.004;-75.010;2023-05-29T10:07:08;100326.19;;;9.88;65.83
77482;BME280;66582;43.004;-75.010;2023-05-29T10:09:30;100335.42;;;10.16;63.97
77482;BME280;66582;43.004;-75.010;2023-05-29T10:11:56;100346.06;;;7.62;71.55
77482;BME280;66582;43.004;-75.010;2023-05-29T10:14:21;100349.97;;;6.95;80.60
77482;BME280;66582;43.004;-75.010;2023-05-29T10:16:47;100349.82;;;7.61;76.67
77482;BME280;66582;43.004;-75.010;2023-05-29T10:19:13;100343.01;;;9.59;67.78
77482;BME280;66582;43.004;-75.010;2023-05-29T10:21:37;100349.53;;;7.67;72.96
77482;BME280;66582;43.004;-75.010;2023-05-29T10:24:04;100360.45;;;7.09;81.48
77482;BME280;66582;43.004;-75.010;2023-05-29T10:26:27;100365.58;;;7.24;78.61
77482;BME280;66582;43.004;-75.010;2023-05-29T10:28:58;100355.59;;;7.63;76.54
77482;BME280;66582;43.004;-75.010;2023-05-29T10:31:20;100365.97;;;7.38;79.32
77482;BME280;66582;43.004;-75.010;2023-05-29T10:33:52;100371.34;;;6.44;83.22
77482;BME280;66582;43.004;-75.010;2023-05-29T10:36:13;100370.48;;;6.70;83.60
77482;BME280;66582;43.004;-75.010;2023-05-29T10:38:32;100358.36;;;9.62;73.47
77482;BME280;66582;43.004;-75.010;2023-05-29T10:43:32;100370.80;;;8.06;75.72
77482;BME280;66582;43.004;-75.010;2023-05-29T10:45:50;100376.04;;;7.78;77.23
77482;BME280;66582;43.004;-75.010;2023-05-29T10:50:40;100363.68;;;9.97;65.87
77482;BME280;66582;43.004;-75.010;2023-05-29T10:53:03;100363.12;;;9.71;70.62
77482;BME280;66582;43.004;-75.010;2023-05-29T10:55:34;100376.02;;;7.61;75.71
77482;BME280;66582;43.004;-75.010;2023-05-29T10:57:54;100370.51;;;8.86;78.49
77482;BME280;66582;43.004;-75.010;2023-05-29T11:00:20;100361.99;;;10.21;70.49
77482;BME280;66582;43.004;-75.010;2023-05-29T11:02:44;100366.52;;;11.56;64.31
77482;BME280;66582;43.004;-75.010;2023-05-29T11:05:19;100360.25;;;12.99;60.80
77482;BME280;66582;43.004;-75.010;2023-05-29T11:07:35;100362.07;;;13.06;57.40
77482;BME280;66582;43.004;-75.010;2023-05-29T11:10:12;100356.04;;;14.17;54.28
77482;BME280;66582;43.004;-75.010;2023-05-29T11:12:25;100360.98;;;11.63;59.63
77482;BME280;66582;43.004;-75.010;2023-05-29T11:14:55;100358.72;;;12.63;60.63
77482;BME280;66582;43.004;-75.010;2023-05-29T11:17:30;100370.60;;;10.80;68.41
77482;BME280;66582;43.004;-75.010;2023-05-29T11:19:42;100372.21;;;10.85;68.20
77482;BME280;66582;43.004;-75.010;2023-05-29T11:22:12;100366.41;;;14.13;56.83
77482;BME280;66582;43.004;-75.010;2023-05-29T11:24:32;100376.47;;;14.61;52.90
77482;BME280;66582;43.004;-75.010;2023-05-29T11:26:58;100390.56;;;10.51;65.54
77482;BME280;66582;43.004;-75.010;2023-05-29T11:29:24;100382.74;;;12.45;60.88
77482;BME280;66582;43.004;-75.010;2023-05-29T11:31:54;100375.07;;;15.21;54.02
77482;BME280;66582;43.004;-75.010;2023-05-29T11:34:15;100389.31;;;11.88;62.55
77482;BME280;66582;43.004;-75.010;2023-05-29T11:36:39;100384.41;;;13.21;57.10
77482;BME280;66582;43.004;-75.010;2023-05-29T11:39:04;100385.64;;;14.10;55.44
77482;BME280;66582;43.004;-75.010;2023-05-29T11:41:29;100386.14;;;14.42;55.27
77482;BME280;66582;43.004;-75.010;2023-05-29T11:43:58;100384.64;;;15.45;50.89
77482;BME280;66582;43.004;-75.010;2023-05-29T11:46:20;100375.85;;;16.90;47.55
77482;BME280;66582;43.004;-75.010;2023-05-29T11:48:46;100371.72;;;17.89;44.21
77482;BME280;66582;43.004;-75.010;2023-05-29T11:51:11;100372.50;;;18.07;42.84
77482;BME280;66582;43.004;-75.010;2023-05-29T11:53:34;100368.57;;;18.95;40.83
77482;BME280;66582;43.004;-75.010;2023-05-29T11:56:07;100369.01;;;19.26;40.58
77482;BME280;66582;43.004;-75.010;2023-05-29T11:58:29;100372.92;;;18.79;40.72
77482;BME280;66582;43.004;-75.010;2023-05-29T12:00:50;100373.74;;;19.51;40.28
77482;BME280;66582;43.004;-75.010;2023-05-29T12:03:15;100367.98;;;18.68;39.10
77482;BME280;66582;43.004;-75.010;2023-05-29T12:05:47;100363.43;;;20.60;37.24
77482;BME280;66582;43.004;-75.010;2023-05-29T12:08:06;100360.11;;;20.62;36.66
77482;BME280;66582;43.004;-75.010;2023-05-29T12:10:31;100354.84;;;20.74;35.64
77482;BME280;66582;43.004;-75.010;2023-05-29T12:12:59;100351.89;;;20.89;35.51
77482;BME280;66582;43.004;-75.010;2023-05-29T12:15:23;100355.93;;;21.56;35.17
77482;BME280;66582;43.004;-75.010;2023-05-29T12:17:48;100355.19;;;22.17;33.63
77482;BME280;66582;43.004;-75.010;2023-05-29T12:20:13;100353.94;;;22.29;33.60
77482;BME280;66582;43.004;-75.010;2023-05-29T12:22:39;100354.01;;;22.82;33.45
77482;BME280;66582;43.004;-75.010;2023-05-29T12:25:06;100357.92;;;22.27;32.40